Time;durP1;ratioP1;P1;durP2;ratioP2;P2;SDS_P1;SDS_P2;PMS_P1;PMS_P2;Temp;Humidity;BMP_temperature;BMP_pressure;BME280_temperature;BME280_humidity;BME280_pressure;Samples;Min_cycle;Max_cycle;Signal;HPM_P1;HPM_P2
2022/04/17 00:00:41;;;;;;;27.50;10.90;;;;;;;1.72;62.20;99887.07;108007;1279;22593;-76
2022/04/17 00:03:08;;;;;;;27.30;11.70;;;;;;;1.71;61.81;99883.81;108026;1279;22532;-73
2022/04/17 00:05:36;;;;;;;28.50;11.80;;;;;;;1.68;61.55;99881.98;108052;1279;22635;-74
2022/04/17 00:08:03;;;;;;;24.30;11.20;;;;;;;1.66;61.34;99884.23;108012;1279;22710;-74
2022/04/17 00:10:31;;;;;;;31.10;12.20;;;;;;;1.63;61.34;99886.30;108048;1279;23158;-73
2022/04/17 00:12:58;;;;;;;26.50;11.90;;;;;;;1.58;62.18;99890.48;107979;1279;22639;-73
2022/04/17 00:15:25;;;;;;;27.40;11.40;;;;;;;1.55;61.33;99888.10;108042;1279;22717;-74
2022/04/17 00:17:52;;;;;;;26.20;12.80;;;;;;;1.52;61.46;99888.46;108058;1279;22586;-74
2022/04/17 00:20:19;;;;;;;28.50;12.70;;;;;;;1.49;61.33;99888.67;107977;1279;24482;-74
2022/04/17 00:22:47;;;;;;;32.40;13.00;;;;;;;1.46;61.63;99886.45;108027;1279;25350;-74
2022/04/17 00:25:16;;;;;;;31.20;15.20;;;;;;;1.45;61.46;99887.66;108037;1279;22583;-74
2022/04/17 00:27:43;;;;;;;33.00;13.90;;;;;;;1.44;61.43;99885.27;108008;1279;23561;-74
2022/04/17 00:30:10;;;;;;;30.70;13.50;;;;;;;1.42;61.26;99884.95;108034;1279;22616;-74
2022/04/17 00:32:38;;;;;;;29.80;12.80;;;;;;;1.39;61.47;99884.97;108056;1279;22603;-74
2022/04/17 00:35:07;;;;;;;34.00;14.90;;;;;;;1.36;61.64;99882.93;108034;1279;22617;-74
2022/04/17 00:37:36;;;;;;;30.30;12.70;;;;;;;1.35;61.73;99881.91;108040;1279;22563;-73
2022/04/17 00:40:07;;;;;;;31.10;13.80;;;;;;;1.38;61.86;99880.69;108020;1279;22547;-74
2022/04/17 00:42:34;;;;;;;26.00;11.50;;;;;;;1.39;62.89;99878.95;108020;1279;25376;-74
2022/04/17 00:45:02;;;;;;;24.70;11.10;;;;;;;1.40;63.56;99881.54;108297;1279;25315;-74
2022/04/17 00:47:29;;;;;;;25.20;11.60;;;;;;;1.37;63.76;99880.01;108305;1279;22576;-73
2022/04/17 00:49:57;;;;;;;23.70;10.60;;;;;;;1.33;63.23;99876.10;108291;1279;22567;-73
2022/04/17 00:52:24;;;;;;;23.70;11.60;;;;;;;1.30;62.82;99871.48;108325;1279;22622;-73
2022/04/17 00:54:53;;;;;;;29.30;12.60;;;;;;;1.27;62.56;99869.79;108294;1279;22543;-74
2022/04/17 00:57:22;;;;;;;24.10;10.80;;;;;;;1.26;62.62;99868.08;108299;1279;22533;-74
2022/04/17 00:59:50;;;;;;;26.10;11.70;;;;;;;1.23;62.37;99864.70;108297;1279;22534;-74
2022/04/17 01:02:17;;;;;;;22.40;10.80;;;;;;;1.20;62.39;99857.84;108324;1279;22565;-74
2022/04/17 01:04:45;;;;;;;20.90;9.80;;;;;;;1.17;62.26;99852.89;108296;1279;22551;-74
2022/04/17 01:07:17;;;;;;;20.60;10.10;;;;;;;1.13;62.09;99854.65;108300;1279;23972;-74
2022/04/17 01:09:47;;;;;;;16.80;8.40;;;;;;;1.11;62.35;99854.65;108307;1279;22626;-74
2022/04/17 01:12:17;;;;;;;17.50;8.60;;;;;;;1.09;62.26;99851.39;108285;1279;22629;-74
2022/04/17 01:14:44;;;;;;;21.60;9.60;;;;;;;1.08;62.24;99845.06;108308;1279;22565;-74
2022/04/17 01:17:12;;;;;;;20.90;9.00;;;;;;;1.04;62.26;99843.38;108315;1279;22619;-74
2022/04/17 01:19:39;;;;;;;23.30;9.40;;;;;;;1.01;62.27;99839.45;108283;1279;22565;-74
2022/04/17 01:22:08;;;;;;;17.60;8.10;;;;;;;1.03;62.65;99842.52;108322;1279;22583;-74
2022/04/17 01:27:22;;;;;;;18.70;7.10;;;;;;;1.02;64.17;99841.34;108315;1279;22558;-74
2022/04/17 01:29:50;;;;;;;20.40;8.50;;;;;;;0.98;64.13;99841.19;108305;1279;22612;-76
2022/04/17 01:32:18;;;;;;;19.70;8.70;;;;;;;0.96;63.89;99842.25;108347;1279;22555;-76
2022/04/17 01:34:45;;;;;;;21.80;8.80;;;;;;;0.93;63.63;99842.95;108308;1279;24337;-76
2022/04/17 01:37:13;;;;;;;15.70;7.70;;;;;;;0.90;63.40;99846.05;108312;1279;22633;-75
2022/04/17 01:39:41;;;;;;;19.90;9.40;;;;;;;0.86;63.47;99843.35;108265;1279;22561;-77
2022/04/17 01:42:08;;;;;;;20.50;8.90;;;;;;;0.82;63.61;99845.42;108272;1279;22637;-74
2022/04/17 01:44:35;;;;;;;21.90;9.00;;;;;;;0.76;63.59;99844.10;108284;1279;22576;-73
2022/04/17 01:47:03;;;;;;;19.50;8.60;;;;;;;0.70;63.59;99841.56;108085;1279;22789;-74
2022/04/17 01:49:31;;;;;;;18.70;8.80;;;;;;;0.65;63.67;99839.01;108063;1279;22698;-74
2022/04/17 01:51:58;;;;;;;20.80;9.30;;;;;;;0.60;63.67;99840.09;108173;1279;22567;-75
2022/04/17 01:54:26;;;;;;;19.40;8.50;;;;;;;0.54;63.53;99839.77;108049;1279;22807;-74
2022/04/17 01:56:55;;;;;;;20.00;9.30;;;;;;;0.53;63.70;99840.46;107980;1279;22550;-74
2022/04/17 01:59:23;;;;;;;23.20;9.30;;;;;;;0.54;64.46;99837.20;107871;1279;468953;-75
2022/04/17 02:01:51;;;;;;;18.60;8.20;;;;;;;0.54;65.21;99836.51;108016;1279;22540;-75
2022/04/17 02:04:18;;;;;;;18.80;8.50;;;;;;;0.51;65.25;99837.05;108212;1279;22561;-75
2022/04/17 02:06:45;;;;;;;19.60;8.80;;;;;;;0.49;65.29;99839.45;108026;1279;22535;-74
2022/04/17 02:09:14;;;;;;;17.20;8.30;;;;;;;0.45;65.31;99838.45;108033;1279;22563;-75
2022/04/17 02:11:42;;;;;;;24.40;9.30;;;;;;;0.40;65.06;99835.55;107985;1279;22622;-73
2022/04/17 02:14:10;;;;;;;20.20;9.80;;;;;;;0.35;64.98;99835.59;108034;1279;22581;-74
2022/04/17 02:16:37;;;;;;;24.70;9.20;;;;;;;0.29;64.97;99836.64;108038;1279;24231;-74
2022/04/17 02:19:04;;;;;;;21.60;8.90;;;;;;;0.22;64.97;99830.85;108048;1279;22879;-73
2022/04/17 02:21:31;;;;;;;20.30;9.40;;;;;;;0.16;64.71;99833.45;108049;1279;22592;-74
2022/04/17 02:24:00;;;;;;;19.00;8.80;;;;;;;0.10;64.78;99832.27;108023;1279;22557;-74
2022/04/17 02:26:28;;;;;;;19.40;9.20;;;;;;;0.08;64.77;99825.95;107996;1280;22565;-74
2022/04/17 02:28:56;;;;;;;17.90;8.80;;;;;;;0.06;65.55;99828.19;108026;1279;22636;-74
2022/04/17 02:31:24;;;;;;;18.00;8.80;;;;;;;0.03;66.39;99823.39;108267;1279;25495;-74
2022/04/17 02:33:52;;;;;;;21.80;9.90;;;;;;;-0.02;66.57;99824.10;108001;1279;22557;-74
2022/04/17 02:36:20;;;;;;;19.00;9.40;;;;;;;-0.07;66.43;99823.08;108101;1279;22615;-73
2022/04/17 02:38:47;;;;;;;18.10;9.10;;;;;;;-0.14;66.34;99820.89;108016;1279;22536;-74
2022/04/17 02:41:14;;;;;;;20.80;9.20;;;;;;;-0.19;66.15;99823.98;108073;1279;25216;-74
2022/04/17 02:43:42;;;;;;;19.50;8.10;;;;;;;-0.24;66.45;99821.94;108061;1281;22715;-73
2022/04/17 02:46:09;;;;;;;18.50;9.20;;;;;;;-0.30;66.18;99821.27;107984;1279;22706;-73
2022/04/17 02:48:36;;;;;;;20.10;8.70;;;;;;;-0.35;65.97;99824.36;108003;1279;24302;-73
2022/04/17 02:51:03;;;;;;;19.20;9.10;;;;;;;-0.39;65.94;99821.47;108010;1279;22557;-74
2022/04/17 02:53:32;;;;;;;19.90;9.20;;;;;;;-0.39;66.05;99816.85;108016;1280;22565;-74
2022/04/17 02:56:00;;;;;;;18.30;9.10;;;;;;;-0.40;66.63;99824.38;108062;1279;22588;-76
2022/04/17 02:58:27;;;;;;;17.70;8.70;;;;;;;-0.42;67.38;99822.15;108012;1279;23858;-73
2022/04/17 03:06:45;;;;;;;19.00;9.10;;;;;;;-0.55;67.19;99823.05;107425;1284;22596;-74
2022/04/17 03:09:12;;;;;;;20.00;9.30;;;;;;;-0.59;67.07;99824.92;107463;1284;22948;-74
2022/04/17 03:11:39;;;;;;;19.60;9.30;;;;;;;-0.62;66.98;99822.35;107686;1281;24295;-74
2022/04/17 03:14:06;;;;;;;19.50;9.70;;;;;;;-0.67;66.98;99823.73;108019;1279;22567;-74
2022/04/17 03:16:33;;;;;;;22.20;9.80;;;;;;;-0.70;66.77;99825.29;108034;1280;22590;-74
2022/04/17 03:19:00;;;;;;;20.70;10.20;;;;;;;-0.74;66.62;99827.68;108039;1280;22605;-74
2022/04/17 03:21:27;;;;;;;20.90;10.00;;;;;;;-0.73;66.87;99833.34;108046;1279;22559;-74
2022/04/17 03:23:54;;;;;;;28.00;12.20;;;;;;;-0.73;67.38;99832.30;108008;1280;22607;-74
2022/04/17 03:26:21;;;;;;;24.30;11.50;;;;;;;-0.73;68.05;99833.84;107983;1278;22537;-74
2022/04/17 03:28:48;;;;;;;25.10;12.00;;;;;;;-0.77;68.27;99831.09;108010;1281;24012;-74
2022/04/17 03:31:15;;;;;;;30.30;14.20;;;;;;;-0.79;68.28;99836.05;108040;1278;22700;-74
2022/04/17 03:33:42;;;;;;;28.60;12.30;;;;;;;-0.81;68.10;99838.63;108034;1279;22741;-74
2022/04/17 03:36:09;;;;;;;30.80;13.30;;;;;;;-0.82;68.01;99838.46;108008;1279;22716;-74
2022/04/17 03:38:36;;;;;;;30.40;14.00;;;;;;;-0.84;67.68;99834.52;108002;1280;22612;-74
2022/04/17 03:41:03;;;;;;;33.70;13.50;;;;;;;-0.87;67.64;99833.15;108023;1281;22528;-74
2022/04/17 03:43:30;;;;;;;35.90;15.10;;;;;;;-0.90;67.66;99832.65;108038;1279;22569;-74
2022/04/17 03:45:57;;;;;;;29.60;14.60;;;;;;;-0.92;67.70;99834.02;108016;1280;22620;-73
2022/04/17 03:48:25;;;;;;;32.80;14.90;;;;;;;-0.88;67.58;99834.68;108039;1279;23893;-74
2022/04/17 03:50:52;;;;;;;26.70;13.60;;;;;;;-0.86;68.28;99836.23;108008;1281;22709;-73
2022/04/17 03:53:19;;;;;;;32.90;15.80;;;;;;;-0.86;68.80;99836.91;108022;1279;25363;-74
2022/04/17 03:55:47;;;;;;;32.30;15.90;;;;;;;-0.88;69.13;99836.05;108002;1281;22742;-73
2022/04/17 03:58:14;;;;;;;33.90;16.10;;;;;;;-0.87;68.98;99839.98;108007;1279;22667;-74
2022/04/17 04:00:41;;;;;;;30.30;15.60;;;;;;;-0.87;68.75;99839.65;108026;1281;22562;-74
2022/04/17 04:03:07;;;;;;;29.00;14.90;;;;;;;-0.87;68.70;99842.90;108017;1279;22695;-74
2022/04/17 04:05:34;;;;;;;29.50;14.20;;;;;;;-0.87;68.87;99838.96;107988;1280;22547;-74
2022/04/17 04:08:02;;;;;;;31.00;14.30;;;;;;;-0.85;68.52;99842.05;108031;1281;22594;-74
2022/04/17 04:10:29;;;;;;;32.30;14.90;;;;;;;-0.82;68.45;99841.20;108018;1280;24266;-74
2022/04/17 04:12:56;;;;;;;42.10;17.10;;;;;;;-0.73;68.64;99839.83;107980;1280;22606;-73
2022/04/17 04:15:24;;;;;;;29.30;14.30;;;;;;;-0.63;69.45;99837.77;108008;1281;22674;-74
2022/04/17 04:17:51;;;;;;;28.90;12.10;;;;;;;-0.52;70.35;99838.95;107961;1280;24306;-75
2022/04/17 04:20:18;;;;;;;27.30;14.10;;;;;;;-0.44;70.38;99842.02;108075;1281;22732;-74
2022/04/17 04:22:45;;;;;;;25.10;11.30;;;;;;;-0.35;70.17;99841.99;108044;1281;24234;-74
2022/04/17 04:25:12;;;;;;;28.60;10.80;;;;;;;-0.26;69.87;99843.52;107997;1281;22709;-74
2022/04/17 04:30:25;;;;;;;21.40;9.80;;;;;;;-0.07;69.56;99838.85;108003;1281;22660;-74
2022/04/17 04:32:56;;;;;;;25.20;10.10;;;;;;;0.01;69.37;99836.24;108042;1281;22568;-73
2022/04/17 04:35:26;;;;;;;29.40;13.00;;;;;;;0.09;69.63;99837.41;108001;1280;22776;-74
2022/04/17 04:37:53;;;;;;;32.20;14.40;;;;;;;0.19;69.43;99839.60;108003;1281;24815;-73
2022/04/17 04:40:20;;;;;;;30.70;13.90;;;;;;;0.34;69.19;99842.95;108006;1279;22727;-73
2022/04/17 04:42:48;;;;;;;31.10;14.60;;;;;;;0.47;69.45;99841.19;108025;1279;22620;-74
2022/04/17 04:48:01;;;;;;;24.00;10.10;;;;;;;0.73;70.50;99848.05;107996;1281;25428;-74
2022/04/17 04:50:28;;;;;;;24.20;9.70;;;;;;;0.84;70.38;99845.58;108039;1281;22557;-74
2022/04/17 04:52:56;;;;;;;24.50;10.50;;;;;;;0.92;70.21;99844.16;108022;1281;22640;-73
2022/04/17 04:55:23;;;;;;;26.50;11.40;;;;;;;1.01;69.69;99845.13;108000;1279;25144;-74
2022/04/17 04:57:50;;;;;;;24.50;10.90;;;;;;;1.12;69.61;99842.98;108019;1281;22724;-74
2022/04/17 05:00:17;;;;;;;24.40;11.10;;;;;;;1.23;69.38;99849.58;108008;1279;22629;-74
2022/04/17 05:02:44;;;;;;;24.50;10.50;;;;;;;1.33;69.14;99850.70;108003;1280;25352;-73
2022/04/17 05:05:11;;;;;;;23.50;11.20;;;;;;;1.40;69.05;99852.17;108039;1281;22762;-74
2022/04/17 05:07:38;;;;;;;22.90;10.90;;;;;;;1.49;68.86;99847.80;108026;1281;25321;-74
2022/04/17 05:10:07;;;;;;;20.10;10.40;;;;;;;1.63;68.53;99849.21;108000;1281;22547;-74
2022/04/17 05:12:34;;;;;;;21.20;10.40;;;;;;;1.86;68.40;99847.27;107975;1281;22562;-74
2022/04/17 05:15:01;;;;;;;19.40;9.80;;;;;;;2.09;68.44;99848.03;108012;1279;22554;-75
2022/04/17 05:17:28;;;;;;;20.40;9.30;;;;;;;2.28;68.69;99847.45;108019;1279;22656;-74
2022/04/17 05:19:55;;;;;;;17.20;9.40;;;;;;;2.43;68.66;99847.09;108027;1281;22601;-74
2022/04/17 05:22:31;;;;;;;18.00;9.10;;;;;;;2.50;68.15;99844.27;108047;1281;22585;-74
2022/04/17 05:24:58;;;;;;;19.20;9.70;;;;;;;2.53;67.69;99846.61;108006;1279;22525;-74
2022/04/17 05:27:27;;;;;;;15.70;8.80;;;;;;;2.51;67.34;99848.52;107940;1279;22588;-74
2022/04/17 05:29:54;;;;;;;16.20;8.70;;;;;;;2.56;67.21;99847.61;108030;1279;25318;-74
2022/04/17 05:32:21;;;;;;;17.90;9.90;;;;;;;2.63;66.98;99849.91;108032;1280;22725;-74
2022/04/17 05:34:48;;;;;;;19.60;10.60;;;;;;;2.70;66.64;99849.31;108032;1281;22737;-75
2022/04/17 05:37:15;;;;;;;20.70;11.10;;;;;;;2.69;66.37;99855.69;108007;1279;22693;-75
2022/04/17 05:39:42;;;;;;;19.60;10.00;;;;;;;2.73;66.25;99854.26;108011;1280;22581;-75
2022/04/17 05:42:10;;;;;;;19.40;9.30;;;;;;;2.79;66.19;99851.77;108029;1279;23340;-74
2022/04/17 05:44:37;;;;;;;24.40;10.60;;;;;;;2.86;66.10;99852.34;107989;1279;22630;-74
2022/04/17 05:47:04;;;;;;;23.90;12.00;;;;;;;2.93;66.04;99846.91;107980;1279;22649;-74
2022/04/17 05:49:31;;;;;;;56.60;18.40;;;;;;;2.97;65.65;99848.73;108054;1280;22588;-73
2022/04/17 05:51:59;;;;;;;21.70;10.80;;;;;;;3.00;65.52;99852.30;108054;1279;23239;-73
2022/04/17 05:54:27;;;;;;;16.30;8.80;;;;;;;3.08;65.54;99849.08;108003;1279;22553;-74
2022/04/17 05:56:54;;;;;;;19.00;11.10;;;;;;;3.14;65.42;99854.66;108037;1279;22567;-74
2022/04/17 05:59:22;;;;;;;20.70;12.60;;;;;;;3.21;65.10;99852.49;108057;1279;22534;-73
2022/04/17 06:01:49;;;;;;;16.90;10.40;;;;;;;3.27;64.90;99853.60;108029;1279;22556;-73
2022/04/17 06:04:16;;;;;;;19.90;10.50;;;;;;;3.29;64.80;99853.23;108015;1279;22601;-74
2022/04/17 06:06:43;;;;;;;20.10;11.60;;;;;;;3.34;64.63;99856.74;108017;1279;22546;-74
2022/04/17 06:09:10;;;;;;;27.20;16.00;;;;;;;3.40;64.45;99854.25;108032;1279;22833;-74
2022/04/17 06:11:37;;;;;;;23.00;13.70;;;;;;;3.51;64.44;99852.52;108049;1279;25355;-74
2022/04/17 06:14:04;;;;;;;18.50;11.10;;;;;;;3.54;64.45;99854.53;108046;1279;22558;-74
2022/04/17 06:16:32;;;;;;;21.30;12.70;;;;;;;3.61;64.20;99849.75;108025;1279;26641;-75
2022/04/17 06:18:59;;;;;;;24.30;15.20;;;;;;;3.68;64.23;99850.30;108050;1279;22569;-74
2022/04/17 06:21:26;;;;;;;18.70;10.50;;;;;;;3.77;64.01;99845.30;108016;1279;22584;-74
2022/04/17 06:23:53;;;;;;;24.60;14.00;;;;;;;3.86;63.50;99852.55;108029;1279;22576;-73
2022/04/17 06:26:20;;;;;;;29.40;16.70;;;;;;;3.94;63.65;99853.96;108042;1279;22749;-73
2022/04/17 06:28:47;;;;;;;27.30;14.20;;;;;;;4.06;63.35;99848.39;108082;1279;22538;-74
2022/04/17 06:31:14;;;;;;;24.10;12.70;;;;;;;4.14;62.84;99849.78;108025;1279;22551;-76
2022/04/17 06:33:41;;;;;;;28.10;13.20;;;;;;;4.18;62.89;99854.52;108023;1279;22718;-74
2022/04/17 06:36:08;;;;;;;20.30;10.10;;;;;;;4.30;62.65;99855.84;108035;1279;22564;-75
2022/04/17 06:38:35;;;;;;;20.60;12.00;;;;;;;4.50;62.52;99854.90;108035;1279;22575;-75
2022/04/17 06:41:02;;;;;;;20.80;10.70;;;;;;;4.71;62.59;99852.02;108032;1279;22692;-75
2022/04/17 06:43:29;;;;;;;20.80;11.40;;;;;;;4.96;62.02;99855.09;108055;1279;24152;-75
2022/04/17 06:45:56;;;;;;;20.50;11.60;;;;;;;5.08;61.33;99856.04;108045;1279;22559;-73
2022/04/17 06:48:23;;;;;;;17.50;10.20;;;;;;;5.21;61.00;99854.34;108058;1279;26683;-74
2022/04/17 06:50:53;;;;;;;16.70;9.30;;;;;;;5.39;60.37;99852.83;108039;1279;22549;-75
2022/04/17 06:53:20;;;;;;;18.00;11.40;;;;;;;5.57;60.05;99848.58;108015;1279;24253;-74
2022/04/17 06:55:48;;;;;;;19.90;11.30;;;;;;;5.76;59.43;99847.75;108039;1279;25056;-74
2022/04/17 06:58:19;;;;;;;18.90;11.20;;;;;;;5.86;58.76;99847.66;108102;1279;22604;-74
2022/04/17 07:00:47;;;;;;;18.60;11.60;;;;;;;5.94;58.09;99847.28;108062;1279;22534;-73
2022/04/17 07:03:14;;;;;;;18.20;10.70;;;;;;;5.90;57.90;99845.33;108153;1279;25326;-73
2022/04/17 07:05:42;;;;;;;23.30;12.80;;;;;;;5.94;57.85;99845.05;108000;1279;22868;-75
2022/04/17 07:08:09;;;;;;;15.00;9.50;;;;;;;5.98;57.72;99842.34;108070;1279;26200;-74
2022/04/17 07:10:38;;;;;;;13.70;7.70;;;;;;;6.04;57.70;99843.39;108039;1279;22718;-74
2022/04/17 07:13:15;;;;;;;15.60;8.20;;;;;;;6.08;57.38;99845.02;108040;1279;25465;-74
2022/04/17 07:15:42;;;;;;;14.30;8.70;;;;;;;6.14;56.97;99844.68;108021;1279;22711;-75
2022/04/17 07:18:09;;;;;;;24.30;14.40;;;;;;;6.16;56.80;99847.05;108009;1279;22560;-74
2022/04/17 07:20:36;;;;;;;16.10;9.30;;;;;;;6.22;56.30;99844.45;108039;1279;22553;-74
2022/04/17 07:23:06;;;;;;;17.60;9.00;;;;;;;6.23;56.26;99842.50;108044;1279;22766;-76
2022/04/17 07:25:33;;;;;;;13.20;7.90;;;;;;;6.25;56.03;99842.63;108077;1279;22538;-75
2022/04/17 07:28:01;;;;;;;21.60;11.20;;;;;;;6.26;55.77;99846.03;108063;1279;22650;-75
2022/04/17 07:30:31;;;;;;;32.20;14.50;;;;;;;6.30;55.57;99845.77;108030;1279;25345;-75
2022/04/17 07:33:00;;;;;;;35.30;13.00;;;;;;;6.31;55.06;99841.40;108018;1279;23125;-75
2022/04/17 07:35:29;;;;;;;24.40;9.00;;;;;;;6.27;54.74;99839.08;107995;1279;23051;-74
2022/04/17 07:37:58;;;;;;;27.30;9.80;;;;;;;6.34;54.89;99844.09;108026;1278;24022;-75
2022/04/17 07:40:28;;;;;;;29.20;10.90;;;;;;;6.42;54.88;99840.59;107988;1279;22537;-74
2022/04/17 07:42:58;;;;;;;18.60;8.70;;;;;;;6.50;54.74;99838.80;108253;1279;24344;-79
2022/04/17 07:45:27;;;;;;;17.20;8.40;;;;;;;6.58;54.47;99836.14;108000;1279;24327;-74
2022/04/17 07:47:54;;;;;;;29.70;16.80;;;;;;;6.68;54.20;99831.50;108045;1279;22709;-75
2022/04/17 07:50:24;;;;;;;28.50;15.70;;;;;;;6.76;54.34;99831.23;108037;1279;22678;-75
2022/04/17 07:52:53;;;;;;;15.20;9.50;;;;;;;6.84;53.61;99829.27;108035;1279;22708;-76
2022/04/17 07:55:22;;;;;;;14.80;7.90;;;;;;;6.89;53.07;99826.52;107984;1279;22644;-73
2022/04/17 07:58:11;;;;;;;14.10;8.20;;;;;;;6.92;52.46;99823.29;108015;1279;24266;-74
2022/04/17 08:00:57;;;;;;;12.70;7.70;;;;;;;6.99;52.29;99822.20;108053;1279;22558;-75
2022/04/17 08:05:59;;;;;;;11.50;5.80;;;;;;;7.09;50.47;99819.29;108026;1279;25141;-75
2022/04/17 08:08:26;;;;;;;10.70;5.90;;;;;;;7.06;50.98;99815.05;108051;1279;22548;-75
2022/04/17 08:10:53;;;;;;;23.70;9.90;;;;;;;7.02;51.00;99812.58;108028;1279;22710;-75
2022/04/17 08:13:20;;;;;;;15.20;7.10;;;;;;;7.14;51.29;99809.77;108038;1279;22550;-75
2022/04/17 08:15:47;;;;;;;10.40;6.00;;;;;;;7.33;49.44;99803.27;108085;1279;22558;-75
2022/04/17 08:18:14;;;;;;;19.10;7.90;;;;;;;7.39;48.63;99800.44;108054;1279;22581;-75
2022/04/17 08:20:42;;;;;;;22.00;10.00;;;;;;;7.57;46.30;99805.56;108018;1279;23288;-75
2022/04/17 08:23:10;;;;;;;13.90;7.10;;;;;;;7.61;46.74;99795.54;108083;1278;22575;-75
2022/04/17 08:25:38;;;;;;;17.60;8.70;;;;;;;7.67;46.32;99802.79;108079;1279;22560;-75
2022/04/17 08:28:06;;;;;;;10.20;4.40;;;;;;;7.69;46.06;99799.58;108070;1279;22676;-75
2022/04/17 08:30:34;;;;;;;7.30;3.50;;;;;;;7.80;45.58;99800.41;108029;1279;22704;-75
2022/04/17 08:33:05;;;;;;;4.60;2.40;;;;;;;7.91;43.65;99802.61;108063;1279;22652;-75
2022/04/17 08:35:33;;;;;;;6.80;4.60;;;;;;;8.01;43.19;99792.22;108013;1279;22548;-74
2022/04/17 08:38:00;;;;;;;11.50;7.00;;;;;;;8.29;43.10;99789.61;108190;1279;22614;-75
2022/04/17 08:40:28;;;;;;;10.10;5.90;;;;;;;8.58;41.75;99789.39;107989;1279;25393;-75
2022/04/17 08:42:56;;;;;;;11.10;5.90;;;;;;;8.75;42.20;99784.05;108065;1279;24702;-74
2022/04/17 08:45:24;;;;;;;7.70;4.70;;;;;;;8.87;42.27;99789.45;108042;1279;22608;-75
2022/04/17 08:47:51;;;;;;;71.50;55.40;;;;;;;8.98;43.42;99784.66;108011;1279;22548;-75
2022/04/17 08:50:20;;;;;;;14.10;10.00;;;;;;;9.11;42.06;99786.58;108017;1279;22860;-74
2022/04/17 08:52:50;;;;;;;32.30;14.50;;;;;;;9.01;40.54;99785.75;108054;1279;24391;-74
2022/04/17 08:55:17;;;;;;;150.90;45.00;;;;;;;8.80;40.94;99784.86;108037;1279;22571;-74
2022/04/17 08:57:44;;;;;;;52.00;20.30;;;;;;;8.76;40.93;99783.11;108016;1279;22670;-77
2022/04/17 09:00:16;;;;;;;60.60;24.40;;;;;;;8.64;41.29;99779.61;108050;1279;22619;-75
2022/04/17 09:02:44;;;;;;;40.30;20.20;;;;;;;8.59;40.57;99776.13;108036;1279;22641;-75
2022/04/17 09:05:13;;;;;;;15.40;9.50;;;;;;;8.57;39.71;99774.47;108045;1279;22631;-74
2022/04/17 09:07:44;;;;;;;22.40;9.80;;;;;;;8.52;39.33;99772.23;108048;1277;22535;-75
2022/04/17 09:10:23;;;;;;;20.30;8.30;;;;;;;8.58;39.73;99769.42;108039;1279;22555;-75
2022/04/17 09:12:53;;;;;;;8.40;3.50;;;;;;;8.69;39.76;99763.64;108034;1279;22543;-75
2022/04/17 09:15:24;;;;;;;31.70;15.70;;;;;;;8.83;39.77;99759.91;108049;1279;22537;-77
2022/04/17 09:17:51;;;;;;;20.70;11.20;;;;;;;8.97;40.72;99757.08;108021;1279;22631;-77
2022/04/17 09:20:21;;;;;;;15.10;7.40;;;;;;;9.01;40.43;99756.38;108032;1279;22614;-75
2022/04/17 09:22:51;;;;;;;18.30;10.10;;;;;;;9.12;40.59;99755.59;108023;1279;22570;-75
2022/04/17 09:25:22;;;;;;;24.10;10.80;;;;;;;9.15;40.60;99754.42;108024;1279;22568;-74
2022/04/17 09:28:02;;;;;;;16.50;8.70;;;;;;;9.28;41.03;99751.27;108063;1279;22572;-75
2022/04/17 09:30:42;;;;;;;7.50;4.10;;;;;;;9.37;40.01;99743.24;108029;1279;22711;-75
2022/04/17 09:33:14;;;;;;;19.50;7.80;;;;;;;9.26;39.89;99749.63;108015;1279;23567;-76
2022/04/17 09:36:02;;;;;;;27.10;12.60;;;;;;;9.21;39.83;99742.90;107987;1279;22575;-74
2022/04/17 09:38:33;;;;;;;15.30;7.20;;;;;;;9.29;40.61;99737.66;108030;1279;22630;-75
2022/04/17 09:41:15;;;;;;;30.00;15.30;;;;;;;9.32;40.49;99739.61;108090;1279;22626;-74
2022/04/17 09:43:47;;;;;;;12.90;6.40;;;;;;;9.29;40.48;99730.89;108055;1279;22584;-74
2022/04/17 09:46:14;;;;;;;14.40;6.60;;;;;;;9.30;40.66;99730.13;108030;1279;25364;-75
2022/04/17 09:48:45;;;;;;;9.40;5.10;;;;;;;9.22;40.83;99728.05;108155;1279;22559;-76
2022/04/17 09:51:30;;;;;;;10.10;5.00;;;;;;;9.16;40.52;99725.20;108066;1279;24387;-76
2022/04/17 09:54:06;;;;;;;15.90;6.30;;;;;;;9.23;40.65;99721.93;108205;1279;25234;-75
2022/04/17 09:56:37;;;;;;;55.00;39.70;;;;;;;9.31;40.58;99721.07;108013;1279;22718;-76
2022/04/17 09:59:33;;;;;;;26.50;13.60;;;;;;;9.43;40.58;99716.41;108011;1279;22570;-75
2022/04/17 10:02:00;;;;;;;19.60;7.30;;;;;;;9.59;40.47;99714.28;107854;1279;22711;-74
2022/04/17 10:04:27;;;;;;;21.70;9.30;;;;;;;9.64;39.80;99712.17;107956;1279;22570;-75
2022/04/17 10:06:58;;;;;;;8.80;4.20;;;;;;;9.79;39.64;99711.66;108012;1279;22650;-74
2022/04/17 10:09:26;;;;;;;7.00;3.20;;;;;;;9.72;38.56;99707.10;108038;1279;22717;-73
2022/04/17 10:11:56;;;;;;;8.80;4.20;;;;;;;9.86;39.60;99706.98;108016;1279;22779;-72
2022/04/17 10:14:25;;;;;;;14.40;6.10;;;;;;;10.04;38.12;99703.38;108047;1279;22543;-77
2022/04/17 10:16:55;;;;;;;9.50;6.20;;;;;;;9.93;38.20;99707.20;108059;1279;23153;-73
2022/04/17 10:19:25;;;;;;;10.40;5.80;;;;;;;10.00;38.42;99707.02;108066;1279;22605;-76
2022/04/17 10:21:53;;;;;;;14.70;7.70;;;;;;;10.10;38.03;99705.52;108043;1279;23265;-74
2022/04/17 10:24:21;;;;;;;24.90;12.60;;;;;;;10.25;37.93;99702.27;108250;1279;22544;-82
2022/04/17 10:26:54;;;;;;;30.60;13.30;;;;;;;10.32;37.55;99698.81;108224;1279;22543;-76
2022/04/17 10:29:44;;;;;;;11.10;5.10;;;;;;;10.42;38.25;99692.77;108287;1279;27413;-77
2022/04/17 10:32:30;;;;;;;8.30;5.00;;;;;;;10.63;37.92;99689.65;108229;1279;22645;-81
2022/04/17 10:35:35;;;;;;;21.10;11.20;;;;;;;10.75;37.56;99688.20;108232;1279;22727;-80
2022/04/17 10:38:28;;;;;;;25.00;11.40;;;;;;;10.75;37.36;99683.98;108176;1279;24095;-75
2022/04/17 10:41:02;;;;;;;13.20;6.90;;;;;;;10.51;36.38;99685.70;108159;1278;22629;-74
2022/04/17 10:43:53;;;;;;;20.20;10.10;;;;;;;10.51;37.20;99678.55;108194;1279;22548;-74
2022/04/17 10:46:21;;;;;;;11.90;6.20;;;;;;;10.57;37.02;99675.81;108230;1281;22553;-76
2022/04/17 10:48:48;;;;;;;13.60;6.20;;;;;;;10.62;36.62;99675.75;108271;1279;22553;-75
2022/04/17 10:51:30;;;;;;;35.30;17.80;;;;;;;10.55;36.03;99673.11;108293;1279;22560;-76
2022/04/17 10:54:10;;;;;;;12.90;6.50;;;;;;;10.49;36.73;99673.73;108313;1278;22548;-75
2022/04/17 10:56:39;;;;;;;9.20;4.40;;;;;;;10.41;36.07;99668.41;108279;1279;22864;-79
2022/04/17 10:59:20;;;;;;;7.20;4.50;;;;;;;10.19;36.49;99666.12;108281;1279;22557;-75
2022/04/17 11:02:13;;;;;;;9.40;5.20;;;;;;;10.10;37.13;99661.70;108253;1279;25883;-75
2022/04/17 11:04:55;;;;;;;16.40;8.60;;;;;;;10.10;36.73;99658.35;108106;1278;22723;-75
2022/04/17 11:07:27;;;;;;;9.40;5.00;;;;;;;10.12;37.18;99653.95;108271;1279;22583;-74
2022/04/17 11:10:15;;;;;;;8.20;4.10;;;;;;;10.33;36.97;99644.77;108277;1279;25253;-75
2022/04/17 11:12:47;;;;;;;12.30;7.20;;;;;;;10.41;36.85;99642.44;108282;1279;22559;-74
2022/04/17 11:15:17;;;;;;;18.70;11.60;;;;;;;10.45;36.85;99638.98;108278;1279;22544;-81
2022/04/17 11:17:46;;;;;;;12.80;6.60;;;;;;;10.54;37.10;99637.14;108282;1278;22538;-76
2022/04/17 11:20:14;;;;;;;10.70;5.80;;;;;;;10.48;36.54;99634.98;108268;1279;26630;-78
2022/04/17 11:22:42;;;;;;;8.80;5.70;;;;;;;10.28;36.30;99634.08;108279;1279;22594;-76
2022/04/17 11:25:11;;;;;;;11.40;7.20;;;;;;;10.25;36.54;99626.55;108319;1279;22583;-74
2022/04/17 11:27:48;;;;;;;11.30;6.10;;;;;;;10.36;36.35;99624.23;108207;1279;22584;-76
2022/04/17 11:30:15;;;;;;;8.90;4.50;;;;;;;10.71;36.71;99619.36;108211;1279;22706;-73
2022/04/17 11:32:42;;;;;;;5.60;3.10;;;;;;;11.02;36.22;99620.63;108323;1279;22687;-75
2022/04/17 11:35:15;;;;;;;5.90;3.00;;;;;;;11.15;35.54;99617.84;108338;1279;22640;-75
2022/04/17 11:38:01;;;;;;;10.70;6.20;;;;;;;11.18;35.59;99616.94;108290;1279;22552;-75
2022/04/17 11:40:31;;;;;;;11.60;7.20;;;;;;;11.05;35.11;99617.63;108289;1279;24228;-75
2022/04/17 11:43:17;;;;;;;22.50;16.10;;;;;;;11.01;35.34;99616.64;108319;1279;25539;-76
2022/04/17 11:45:46;;;;;;;9.60;4.80;;;;;;;10.91;35.32;99616.98;108326;1279;22562;-76